Strona główna
METAR-TAF:

METAR-TAF

Lotnisko :

Port lotniczy Norwich

Norwich, Anglia

Szerokość geograficzna: 52-38N, Długość geograficzna: 001-18E, wysokość: 14 m

Aktualna obserwacja pogody

Raport powstał 30 minut temu, godzina 20:20 UTC
Wiatr 2 kt od wschód
Temperatura 2°C
Wilgotność 93%
Ciśnienie 1018 hPa
Widzialność: 3600 m
zmętnienie

METAR: EGSH 272020Z AUTO 08002KT 3600 HZ NCD 02/01 Q1018

czas: 20:50 (20:50 UTC)

Prognoza

Raport powstał 52 minut temu, godzina 19:58 UTC
Prognoza ważna od 27 godzina 21 UTC do 28 godzina 06 UTC
Wiatr 4 kt od wschód
Widzialność 10 km lub więcej
Rozproszone chmury na wysokości 4500 ft
Przejściowo
od 27 godzina 21 UTC do 28 godzina 03 UTC
Widzialność: 7000 m
Prawdopodobieństwo 40%
od 27 godzina 21 UTC do 27 godzina 22 UTC
Widzialność: 3000 m
zamglenie
Przejściowo
od 28 godzina 03 UTC do 28 godzina 06 UTC
Widzialność: 4000 m
Przerywane chmury na wysokości 1400 ft
zamglenie

TAF: EGSH 271958Z 2721/2806 09004KT 9999 SCT045 TEMPO 2721/2803 7000 PROB40 2721/2722 3000 BR TEMPO 2803/2806 4000 BR BKN014

Obserwacja i prognoza pogody dla ponad 4000 lotnisk (raport METAR i TAF).

Dostępne stacje oznaczono żółtymi i czerwonymi punktami na mapie.

Najedź kursorem aby zobaczyć nazwę stacji.

Kliknij aby zobaczyć obserwacje i prognozy pogody.

Aby zmienić mapę: kliknij na zielony przycisk z czarnym krzyżykiem, aby powiększyć; na zielony przycisk z myślnikiem, aby pomniejszyć; na zielone strzałki, aby przejść do map sąsiednich.


METAR-TAF: